Fremont, MI

7:41 AM EDT on September 17, 2019 (GMT -0400)
Fremont

Weather History for KFFX - July, 2019

Change the Weather History Date:

Saturday, July 20, 2019

  Actual Average (KMKG) Record (KMKG)
Temperature  
Mean Temperature 76 °F -  
Max Temperature 85 °F 81 °F 92 °F (1955)
Min Temperature 68 °F 62 °F 44 °F (1941)
Cooling Degree Days 12    
Growing Degree Days 26 (Base 50)    
Moisture  
Dew Point 69 °F    
Average Humidity 89    
Maximum Humidity 100    
Minimum Humidity 57    
Precipitation  
Precipitation 0.00 in - - ()
Sea Level Pressure  
Sea Level Pressure 29.86 in    
Wind  
Wind Speed 7 mph (WSW)    
Max Wind Speed 28 mph    
Max Gust Speed 46 mph    
Visibility 10 miles    
Events Rain    
Averages and records for this station are not official NWS values.
T = Trace of Precipitation, MM = Missing Value Source: NWS Daily Summary

Daily Weather History Graph

Daily Weather History Graph

Search for Another Location

Airport or City:

Astronomy

Jul. 20, 2019 Rise Set
Actual Time 6:21 AM EDT 9:18 PM EDT
Civil Twilight 5:47 AM EDT 9:52 PM EDT
Nautical Twilight 5:04 AM EDT 10:35 PM EDT
Astronomical Twilight 4:12 AM EDT 11:26 PM EDT
Moon 11:40 PM EDT (7/20) 9:48 AM EDT (7/20)
Length of Visible Light 16h 05m
Length of Day
14h 57m
Waning Gibbous, 87% of the Moon is Illuminated
Jul 20
Waning Gibbous
Jul 24
Last Quarter
Jul 31
New
Aug 7
First Quarter
Aug 15
Full

Hourly Weather History & Observations

Time (EDT) Temp. Heat Index Dew Point Humidity Pressure Visibility Wind Dir Wind Speed Gust Speed Precip Events Conditions
12:15 AM 78.1 °F - 75.4 °F 91% 29.82 in 10.0 mi Calm Calm - N/A   Scattered Clouds
12:39 AM 78.6 °F - 76.5 °F 93% 29.85 in 10.0 mi WSW 3.5 mph - N/A   Scattered Clouds
12:57 AM 80.1 °F 85.7 °F 76.5 °F 89% 29.94 in 10.0 mi NNW 27.6 mph 39.1 mph N/A   Scattered Clouds
1:15 AM 70.2 °F - 67.8 °F 92% 29.94 in 2.0 mi North 24.2 mph 46.0 mph N/A Rain Heavy Rain
1:35 AM 68.5 °F - 68.2 °F 99% 29.92 in 5.0 mi North 9.2 mph 19.6 mph N/A Rain Heavy Rain
1:55 AM 68.7 °F - 68.2 °F 98% 29.94 in 7.0 mi NNW 5.8 mph - N/A Rain Rain
2:18 AM 68.5 °F - 68.2 °F 99% 29.94 in 10.0 mi Calm Calm - N/A   Drizzle
2:36 AM 68.9 °F - 68.5 °F 99% 29.95 in 10.0 mi SW 3.5 mph - N/A Rain Rain
2:55 AM 68.5 °F - 68.4 °F 99% 29.94 in 10.0 mi Calm Calm - N/A Rain Rain
3:15 AM 69.1 °F - 68.9 °F 99% 29.94 in 10.0 mi Calm Calm - N/A Rain Rain
3:16 AM 69.1 °F - 68.9 °F 99% 29.94 in 10.0 mi Calm Calm - N/A Rain Rain
3:39 AM 69.8 °F - 68.9 °F 97% 29.92 in 7.0 mi SE 10.4 mph - N/A Rain Light Rain
3:57 AM 68.9 °F - 68.9 °F 100% 29.90 in 10.0 mi South 9.2 mph - N/A Rain Light Rain
4:15 AM 68.9 °F - 68.9 °F 100% 29.87 in 10.0 mi SE 10.4 mph - N/A Rain Light Rain
4:35 AM 69.8 °F - 68.4 °F 95% 29.85 in 10.0 mi SSE 9.2 mph - N/A Rain Light Rain
4:36 AM 69.8 °F - 68.4 °F 95% 29.85 in 10.0 mi SSE 10.4 mph - N/A Rain Light Rain
4:55 AM 70.2 °F - 68.0 °F 93% 29.85 in 10.0 mi South 5.8 mph - N/A   Clear
5:18 AM 69.8 °F - 68.7 °F 96% 29.85 in 10.0 mi SSW 6.9 mph - N/A   Clear
5:36 AM 69.8 °F - 68.4 °F 95% 29.85 in 10.0 mi South 6.9 mph - N/A   Clear
5:55 AM 70.0 °F - 68.0 °F 93% 29.84 in 10.0 mi South 8.1 mph - N/A   Clear
6:15 AM 69.8 °F - 68.0 °F 94% 29.83 in 10.0 mi SE 4.6 mph - N/A   Clear
6:39 AM 69.8 °F - 68.5 °F 96% 29.83 in 10.0 mi WNW 3.5 mph - N/A   Clear
6:57 AM 69.8 °F - 69.3 °F 98% 29.83 in 10.0 mi Calm Calm - N/A   Clear
7:15 AM 69.4 °F - 68.9 °F 98% 29.84 in 10.0 mi North 3.5 mph - N/A   Clear
7:16 AM 69.4 °F - 68.9 °F 98% 29.84 in 10.0 mi North 3.5 mph - N/A   Clear
7:35 AM 69.8 °F - 69.4 °F 99% 29.85 in 10.0 mi Calm Calm - N/A   Clear
7:36 AM 69.8 °F - 69.4 °F 99% 29.85 in 10.0 mi Calm Calm - N/A   Clear
7:55 AM 70.5 °F - 69.8 °F 98% 29.87 in 10.0 mi NE 3.5 mph - N/A   Clear
8:00 AM 70.9 °F - 69.8 °F 96% 29.88 in 10.0 mi North 5.8 mph - N/A   Clear
8:18 AM 73.0 °F - 69.8 °F 90% 29.87 in 10.0 mi Calm Calm - N/A   Clear
8:36 AM 74.7 °F - 67.3 °F 78% 29.87 in 10.0 mi Calm Calm - N/A   Mostly Cloudy
8:55 AM 75.4 °F - 66.2 °F 73% 29.86 in 10.0 mi Calm Calm - N/A   Overcast
9:15 AM 75.7 °F - 66.2 °F 72% 29.86 in 10.0 mi Calm Calm - N/A   Overcast
9:39 AM 76.1 °F - 68.5 °F 77% 29.85 in 10.0 mi SSW 5.8 mph - N/A   Overcast
9:57 AM 77.9 °F - 68.7 °F 73% 29.83 in 10.0 mi South 8.1 mph - N/A   Overcast
10:15 AM 78.8 °F - 69.1 °F 72% 29.83 in 10.0 mi SSW 9.2 mph - N/A   Overcast
10:16 AM 79.0 °F - 69.3 °F 72% 29.83 in 10.0 mi SSW 9.2 mph - N/A   Overcast
10:35 AM 80.6 °F 83.9 °F 69.8 °F 70% 29.85 in 10.0 mi SW 9.2 mph - N/A   Overcast
10:55 AM 81.7 °F 85.6 °F 70.5 °F 69% 29.85 in 10.0 mi WSW 5.8 mph 9.2 mph N/A   Overcast
11:18 AM 82.0 °F 85.7 °F 69.8 °F 66% 29.85 in 10.0 mi SW 10.4 mph - N/A   Overcast
11:36 AM 82.4 °F 86.3 °F 69.8 °F 66% 29.84 in 10.0 mi SW 9.2 mph - N/A   Overcast
11:55 AM 84.4 °F 88.2 °F 69.3 °F 60% 29.84 in 10.0 mi SW 13.8 mph 20.7 mph N/A   Overcast
11:56 AM 84.6 °F 88.2 °F 68.9 °F 59% 29.84 in 10.0 mi SW 15.0 mph 20.7 mph N/A   Overcast
12:15 PM 83.5 °F 86.0 °F 66.7 °F 57% 29.86 in 10.0 mi SW 11.5 mph 18.4 mph N/A   Overcast
12:16 PM 83.5 °F 86.0 °F 66.7 °F 57% 29.85 in 10.0 mi SW 10.4 mph 18.4 mph N/A   Overcast
12:39 PM 84.2 °F 87.9 °F 68.7 °F 60% 29.84 in 10.0 mi SW 16.1 mph 21.9 mph N/A   Overcast
12:57 PM 85.5 °F 90.4 °F 70.5 °F 61% 29.83 in 10.0 mi SSW 18.4 mph 23.0 mph N/A   Overcast
1:15 PM 84.9 °F 90.4 °F 71.4 °F 64% 29.85 in 10.0 mi SW 12.7 mph 24.2 mph N/A   Overcast
1:35 PM 85.5 °F 91.8 °F 72.5 °F 65% 29.84 in 10.0 mi WSW 11.5 mph 16.1 mph N/A   Overcast
1:55 PM 83.5 °F 89.1 °F 72.5 °F 69% 29.84 in 10.0 mi WSW 12.7 mph 19.6 mph N/A   Overcast
1:59 PM 83.3 °F 89.0 °F 72.7 °F 70% 29.84 in 10.0 mi WSW 11.5 mph 16.1 mph N/A   Overcast
2:18 PM 75.6 °F - 65.5 °F 71% 29.83 in 10.0 mi ENE 3.5 mph - N/A   Overcast
2:36 PM 77.0 °F - 67.8 °F 73% 29.80 in 10.0 mi Calm Calm - N/A   Overcast
2:55 PM 78.4 °F - 67.6 °F 69% 29.83 in 10.0 mi ENE 4.6 mph - N/A   Overcast
2:56 PM 78.1 °F - 67.5 °F 70% 29.83 in 10.0 mi ENE 3.5 mph - N/A   Overcast
3:15 PM 70.3 °F - 68.7 °F 95% 29.87 in 1.5 mi NW 8.1 mph 28.8 mph N/A Rain Heavy Rain
3:39 PM 70.3 °F - 70.0 °F 99% 29.90 in 5.0 mi Calm Calm - N/A Rain Rain
3:57 PM 70.7 °F - 70.3 °F 99% 29.90 in 10.0 mi North 4.6 mph - N/A Rain Rain
4:15 PM 70.7 °F - 70.5 °F 99% 29.92 in 10.0 mi NW 3.5 mph - N/A   Light Drizzle
4:16 PM 70.9 °F - 70.7 °F 99% 29.92 in 10.0 mi NNW 3.5 mph - N/A   Light Drizzle
4:35 PM 70.3 °F - 69.8 °F 98% 29.93 in 10.0 mi Calm Calm - N/A Rain Rain
4:55 PM 69.8 °F - 69.1 °F 98% 29.88 in 10.0 mi South 4.6 mph - N/A Rain Light Rain
5:18 PM 69.8 °F - 69.1 °F 98% 29.86 in 10.0 mi SSE 8.1 mph - N/A Rain Light Rain
5:36 PM 69.8 °F - 69.6 °F 99% 29.87 in 10.0 mi SE 3.5 mph - N/A Rain Light Rain
5:55 PM 70.5 °F - 70.0 °F 98% 29.88 in 10.0 mi Calm Calm - N/A Rain Light Rain
5:56 PM 70.5 °F - 70.0 °F 98% 29.88 in 10.0 mi Calm Calm - N/A Rain Light Rain
6:15 PM 70.7 °F - 70.5 °F 99% 29.92 in 10.0 mi West 5.8 mph - N/A Rain Light Rain
6:16 PM 70.7 °F - 70.7 °F 100% 29.92 in 10.0 mi WNW 8.1 mph - N/A Rain Light Rain
6:39 PM 70.5 °F - 70.3 °F 99% 29.87 in 10.0 mi SE 6.9 mph - N/A   Scattered Clouds
6:57 PM 70.2 °F - 70.2 °F 100% 29.79 in 10.0 mi SSE 12.7 mph 17.3 mph N/A Rain Light Rain
7:15 PM 70.0 °F - 70.0 °F 100% 29.75 in 10.0 mi South 10.4 mph 20.7 mph N/A Rain Light Rain
7:16 PM 70.2 °F - 70.2 °F 100% 29.75 in 10.0 mi South 11.5 mph 20.7 mph N/A Rain Light Rain
7:35 PM 70.7 °F - 70.3 °F 99% 29.75 in 10.0 mi SSW 10.4 mph 16.1 mph N/A   Clear
7:55 PM 70.9 °F - 70.5 °F 99% 29.76 in 10.0 mi SE 3.5 mph - N/A   Clear
7:59 PM 71.1 °F - 70.5 °F 98% 29.77 in 10.0 mi Calm Calm - N/A   Clear
8:17 PM 71.2 °F - 70.9 °F 99% 29.77 in 10.0 mi Calm Calm - N/A   Clear
8:35 PM 71.2 °F - 70.7 °F 98% 29.80 in 10.0 mi West 5.8 mph - N/A   Scattered Clouds
8:55 PM 71.1 °F - 70.9 °F 99% 29.83 in 7.0 mi West 6.9 mph - N/A   Scattered Clouds
9:15 PM 70.7 °F - 70.7 °F 100% 29.85 in 10.0 mi NW 9.2 mph - N/A   Scattered Clouds
9:19 PM 70.7 °F - 70.5 °F 99% 29.86 in 10.0 mi NW 8.1 mph - N/A   Scattered Clouds
9:38 PM 70.7 °F - 70.7 °F 100% 29.86 in 10.0 mi NW 9.2 mph - N/A   Overcast
9:56 PM 70.7 °F - 70.3 °F 99% 29.86 in 10.0 mi WNW 10.4 mph - N/A   Overcast
10:15 PM 69.4 °F - 69.1 °F 99% 29.88 in 10.0 mi NW 9.2 mph - N/A   Overcast
10:35 PM 68.9 °F - 68.4 °F 98% 29.88 in 10.0 mi WNW 8.1 mph - N/A   Overcast
10:36 PM 68.9 °F - 68.4 °F 98% 29.88 in 10.0 mi WNW 6.9 mph - N/A   Overcast
10:59 PM 68.5 °F - 68.2 °F 99% 29.90 in 10.0 mi NW 6.9 mph - N/A   Overcast
11:17 PM 68.5 °F - 68.2 °F 99% 29.91 in 10.0 mi NW 5.8 mph - N/A   Overcast
11:35 PM 68.4 °F - 68.0 °F 99% 29.91 in 10.0 mi NW 3.5 mph - N/A   Overcast
11:55 PM 68.5 °F - 68.2 °F 99% 29.92 in 10.0 mi WNW 3.5 mph - N/A   Overcast
11:56 PM 68.5 °F - 68.2 °F 99% 29.92 in 10.0 mi WNW 3.5 mph - N/A   Overcast